createdAt,value
2023-04-02T00:00:16.153Z,7.13
2023-04-02T00:04:40.343Z,7.24
2023-04-02T00:08:42.431Z,7.19
2023-04-02T00:12:59.759Z,7.27
2023-04-02T00:17:05.346Z,7.23
2023-04-02T00:21:22.316Z,7.26
2023-04-02T00:25:28.758Z,7.24
2023-04-02T00:29:30.696Z,7.31
2023-04-02T00:33:33.265Z,7.21
2023-04-02T00:37:39.314Z,7.39
2023-04-02T00:41:46.741Z,7.22
2023-04-02T00:45:56.134Z,7.16
2023-04-02T00:50:07.862Z,7.16
2023-04-02T00:54:15.883Z,7.08
2023-04-02T00:58:34.140Z,7.10
2023-04-02T01:02:40.750Z,7.06
2023-04-02T01:06:43.895Z,7.21
2023-04-02T01:11:02.135Z,7.01
2023-04-02T01:15:13.996Z,7.05
2023-04-02T01:19:53.599Z,6.95
2023-04-02T01:24:06.055Z,7.05
2023-04-02T01:28:19.463Z,7.15
2023-04-02T01:32:23.583Z,7.07
2023-04-02T01:36:38.037Z,7.04
2023-04-02T01:40:54.066Z,6.91
2023-04-02T01:45:05.705Z,6.96
2023-04-02T01:49:26.002Z,6.75
2023-04-02T01:53:30.746Z,6.90
2023-04-02T01:57:33.228Z,6.87
2023-04-02T02:01:48.488Z,6.77
2023-04-02T02:05:51.618Z,6.91
2023-04-02T02:09:54.161Z,6.78
2023-04-02T02:13:58.808Z,6.58
2023-04-02T02:18:05.358Z,6.56
2023-04-02T02:22:31.209Z,6.50
2023-04-02T02:26:35.933Z,6.50
2023-04-02T02:31:07.016Z,6.26
2023-04-02T02:35:19.321Z,6.23
2023-04-02T02:39:32.259Z,6.23
2023-04-02T02:43:38.790Z,6.21
2023-04-02T02:47:44.074Z,6.13
2023-04-02T02:52:13.884Z,6.15
2023-04-02T02:56:30.794Z,6.15
2023-04-02T03:00:35.513Z,6.13
2023-04-02T03:04:38.543Z,6.09
2023-04-02T03:09:12.569Z,6.24
2023-04-02T03:13:15.021Z,6.24
2023-04-02T03:18:02.413Z,6.15
2023-04-02T03:22:21.765Z,6.18
2023-04-02T03:26:39.729Z,6.06
2023-04-02T03:30:52.888Z,6.12
2023-04-02T03:34:59.653Z,6.05
2023-04-02T03:39:13.208Z,6.01
2023-04-02T03:43:22.749Z,5.99
2023-04-02T03:47:36.741Z,5.91
2023-04-02T03:52:01.921Z,5.96
2023-04-02T03:56:06.613Z,6.02
2023-04-02T04:00:17.277Z,6.07
2023-04-02T04:04:30.299Z,5.96
2023-04-02T04:08:50.297Z,6.04
2023-04-02T04:12:56.974Z,5.91
2023-04-02T04:17:09.923Z,5.87
2023-04-02T04:21:37.373Z,5.80
2023-04-02T04:26:19.870Z,5.80
2023-04-02T04:30:42.063Z,5.88
2023-04-02T04:34:51.553Z,5.91
2023-04-02T04:38:59.398Z,5.92
2023-04-02T04:43:12.465Z,5.89
2023-04-02T04:47:20.890Z,5.94
2023-04-02T04:51:31.860Z,5.93
2023-04-02T04:55:44.404Z,5.84
2023-04-02T05:00:07.040Z,5.73
2023-04-02T05:04:26.280Z,5.77
2023-04-02T05:08:35.626Z,5.59
2023-04-02T05:12:48.577Z,5.51
2023-04-02T05:17:10.841Z,5.51
2023-04-02T05:21:42.225Z,5.47
2023-04-02T05:26:09.501Z,5.46
2023-04-02T05:30:38.569Z,5.39
2023-04-02T05:34:46.413Z,5.65
2023-04-02T05:38:51.056Z,5.47
2023-04-02T05:43:02.627Z,5.36
2023-04-02T05:47:18.293Z,5.33
2023-04-02T05:51:36.275Z,5.27
2023-04-02T05:55:57.196Z,5.23
2023-04-02T06:00:07.422Z,5.39
2023-04-02T06:04:24.565Z,5.28
2023-04-02T06:08:37.472Z,5.32
2023-04-02T06:12:45.367Z,5.32
2023-04-02T06:16:48.294Z,5.12
2023-04-02T06:20:50.460Z,4.97
2023-04-02T06:25:02.924Z,5.02
2023-04-02T06:29:28.469Z,4.89
2023-04-02T06:33:31.730Z,5.12
2023-04-02T06:37:38.112Z,5.12
2023-04-02T06:42:04.833Z,5.03
2023-04-02T06:46:36.931Z,4.99
2023-04-02T06:50:58.123Z,5.01
2023-04-02T06:55:04.819Z,4.89
2023-04-02T06:59:07.838Z,4.82
2023-04-02T07:03:19.704Z,4.69
2023-04-02T07:07:21.876Z,4.66
2023-04-02T07:11:26.229Z,4.56
2023-04-02T07:15:32.327Z,4.64
2023-04-02T07:19:34.909Z,4.75
2023-04-02T07:23:37.310Z,4.79
2023-04-02T07:27:39.330Z,4.81
2023-04-02T07:31:41.670Z,4.83
2023-04-02T07:35:44.237Z,4.71
2023-04-02T07:39:46.464Z,4.94
2023-04-02T07:43:48.853Z,4.88
2023-04-02T07:47:51.448Z,4.82
2023-04-02T07:51:53.674Z,4.87
2023-04-02T07:55:57.551Z,4.83
2023-04-02T07:59:59.617Z,4.71
2023-04-02T08:04:04.418Z,4.85
2023-04-02T08:08:06.504Z,5.01
2023-04-02T08:12:13.218Z,5.16
2023-04-02T08:16:16.070Z,5.24
2023-04-02T08:20:20.910Z,5.28
2023-04-02T08:24:23.335Z,5.12
2023-04-02T08:28:25.566Z,4.99
2023-04-02T08:32:29.100Z,4.92
2023-04-02T08:36:35.978Z,5.06
2023-04-02T08:40:42.526Z,4.97
2023-04-02T08:45:24.853Z,5.16
2023-04-02T08:49:32.724Z,4.98
2023-04-02T08:53:37.635Z,4.99
2023-04-02T08:58:02.384Z,5.12
2023-04-02T09:02:39.528Z,5.21
2023-04-02T09:06:43.845Z,5.31
2023-04-02T09:10:53.408Z,5.08
2023-04-02T09:15:05.548Z,5.08
2023-04-02T09:19:41.763Z,5.14
2023-04-02T09:23:43.841Z,5.22
2023-04-02T09:27:50.024Z,5.02
2023-04-02T09:32:07.433Z,5.11
2023-04-02T09:36:18.361Z,5.11
2023-04-02T09:40:32.115Z,5.06
2023-04-02T09:44:35.080Z,5.36
2023-04-02T09:48:58.374Z,5.18
2023-04-02T09:53:28.893Z,5.00
2023-04-02T09:57:32.855Z,5.18
2023-04-02T10:01:37.593Z,5.30
2023-04-02T10:05:41.491Z,5.20
2023-04-02T10:09:43.746Z,4.98
2023-04-02T10:13:57.265Z,4.95
2023-04-02T10:18:22.814Z,4.99
2023-04-02T10:22:28.159Z,5.02
2023-04-02T10:26:55.101Z,4.85
2023-04-02T10:31:09.862Z,5.08
2023-04-02T10:35:52.384Z,5.01
2023-04-02T10:40:01.923Z,5.13
2023-04-02T10:44:31.352Z,5.01
2023-04-02T10:48:58.708Z,5.02
2023-04-02T10:53:07.789Z,5.07
2023-04-02T10:57:24.113Z,5.09
2023-04-02T11:01:30.411Z,5.02
2023-04-02T11:05:46.545Z,4.80
2023-04-02T11:09:52.560Z,4.85
2023-04-02T11:14:15.473Z,4.95
2023-04-02T11:18:32.710Z,4.95
2023-04-02T11:22:34.807Z,4.82
2023-04-02T11:26:47.370Z,4.87
2023-04-02T11:30:49.692Z,4.91
2023-04-02T11:35:05.244Z,4.84
2023-04-02T11:39:17.077Z,4.91
2023-04-02T11:43:49.706Z,4.82
2023-04-02T11:48:01.032Z,4.91
2023-04-02T11:52:12.066Z,4.83
2023-04-02T11:56:26.091Z,4.70
2023-04-02T12:00:47.637Z,4.85
2023-04-02T12:05:09.208Z,4.70
2023-04-02T12:09:42.475Z,4.58
2023-04-02T12:13:44.511Z,4.60
2023-04-02T12:17:46.840Z,4.65
2023-04-02T12:21:51.289Z,4.64
2023-04-02T12:25:58.555Z,4.64
2023-04-02T12:30:17.799Z,4.72
2023-04-02T12:34:22.721Z,4.63
2023-04-02T12:38:28.079Z,4.84
2023-04-02T12:42:39.095Z,4.78
2023-04-02T12:46:41.372Z,4.81
2023-04-02T12:50:43.622Z,4.98
2023-04-02T12:54:53.649Z,5.18
2023-04-02T12:59:01.254Z,5.27
2023-04-02T13:03:06.473Z,5.13
2023-04-02T13:07:17.559Z,5.01
2023-04-02T13:11:20.323Z,4.91
2023-04-02T13:15:27.178Z,5.01
2023-04-02T13:19:34.103Z,5.05
2023-04-02T13:23:37.645Z,5.02
2023-04-02T13:27:39.484Z,5.00
2023-04-02T13:31:41.571Z,4.85
2023-04-02T13:35:44.111Z,4.82
2023-04-02T13:39:46.235Z,5.00
2023-04-02T13:43:52.850Z,5.02
2023-04-02T13:47:57.285Z,5.09
2023-04-02T13:52:03.166Z,4.77
2023-04-02T13:56:05.504Z,4.57
2023-04-02T14:00:08.105Z,4.35
2023-04-02T14:04:13.664Z,4.32
2023-04-02T14:08:44.198Z,4.38
2023-04-02T14:12:59.852Z,4.46
2023-04-02T14:17:28.523Z,4.33
2023-04-02T14:21:51.909Z,4.30
2023-04-02T14:26:17.493Z,4.32
2023-04-02T14:30:38.454Z,4.31
2023-04-02T14:34:58.813Z,4.56
2023-04-02T14:39:22.435Z,4.41
2023-04-02T14:43:33.176Z,4.39
2023-04-02T14:47:42.899Z,4.26
2023-04-02T14:51:51.497Z,4.02
2023-04-02T14:55:54.630Z,3.97
2023-04-02T15:00:20.910Z,3.86
2023-04-02T15:04:30.987Z,4.02
2023-04-02T15:09:20.330Z,3.84
2023-04-02T15:13:45.399Z,3.77
2023-04-02T15:17:47.395Z,3.86
2023-04-02T15:22:00.000Z,3.78
2023-04-02T15:26:10.834Z,3.71
2023-04-02T15:30:18.744Z,3.56
2023-04-02T15:34:32.435Z,3.57
2023-04-02T15:38:42.354Z,3.57
2023-04-02T15:42:52.579Z,3.59
2023-04-02T15:47:22.527Z,3.49
2023-04-02T15:51:24.498Z,3.41
2023-04-02T15:55:39.492Z,3.40
2023-04-02T16:00:00.723Z,3.36
2023-04-02T16:04:02.782Z,3.33
2023-04-02T16:08:13.509Z,3.42
2023-04-02T16:12:19.433Z,3.40
2023-04-02T16:16:32.790Z,3.21
2023-04-02T16:20:40.712Z,3.10
2023-04-02T16:24:43.008Z,3.20
2023-04-02T16:29:14.197Z,2.95
2023-04-02T16:33:24.989Z,2.96
2023-04-02T16:37:39.889Z,3.07
2023-04-02T16:42:05.803Z,2.93
2023-04-02T16:46:15.733Z,2.88
2023-04-02T16:50:36.567Z,2.98
2023-04-02T16:54:51.296Z,3.03
2023-04-02T16:58:58.111Z,3.02
2023-04-02T17:03:47.646Z,2.95
2023-04-02T17:08:01.765Z,2.95
2023-04-02T17:12:11.699Z,2.93
2023-04-02T17:16:21.067Z,2.87
2023-04-02T17:20:25.052Z,2.91
2023-04-02T17:24:38.914Z,3.01
2023-04-02T17:28:41.843Z,3.03
2023-04-02T17:32:44.647Z,3.01
2023-04-02T17:36:55.648Z,3.03
2023-04-02T17:41:05.681Z,3.04
2023-04-02T17:45:42.870Z,3.13
2023-04-02T17:50:09.160Z,3.18
2023-04-02T17:54:25.941Z,3.13
2023-04-02T17:58:52.930Z,3.14
2023-04-02T18:03:09.330Z,3.13
2023-04-02T18:07:33.391Z,3.10
2023-04-02T18:11:54.535Z,3.21
2023-04-02T18:16:13.398Z,3.34
2023-04-02T18:20:38.891Z,3.17
2023-04-02T18:24:50.689Z,3.15
2023-04-02T18:28:59.064Z,3.22
2023-04-02T18:33:30.890Z,3.23
2023-04-02T18:37:41.682Z,3.16
2023-04-02T18:41:59.542Z,3.23
2023-04-02T18:46:09.175Z,3.22
2023-04-02T18:50:33.631Z,3.34
2023-04-02T18:54:41.305Z,3.30
2023-04-02T18:58:56.929Z,3.31
2023-04-02T19:03:27.001Z,3.42
2023-04-02T19:07:33.698Z,3.23
2023-04-02T19:11:36.039Z,3.41
2023-04-02T19:16:10.682Z,3.38
2023-04-02T19:20:29.878Z,3.45
2023-04-02T19:25:10.146Z,3.36
2023-04-02T19:29:40.518Z,3.44
2023-04-02T19:34:32.317Z,3.42
2023-04-02T19:38:49.136Z,3.49
2023-04-02T19:42:54.735Z,3.44
2023-04-02T19:46:56.831Z,3.57
2023-04-02T19:50:58.992Z,3.51
2023-04-02T19:55:01.040Z,3.54
2023-04-02T19:59:17.246Z,3.54
2023-04-02T20:03:20.582Z,3.53
2023-04-02T20:07:22.627Z,3.56
2023-04-02T20:11:26.614Z,3.53
2023-04-02T20:15:47.376Z,3.59
2023-04-02T20:19:49.455Z,3.51
2023-04-02T20:23:55.496Z,3.53
2023-04-02T20:27:57.853Z,3.60
2023-04-02T20:31:59.888Z,3.63
2023-04-02T20:36:08.096Z,3.65
2023-04-02T20:40:10.769Z,3.58
2023-04-02T20:44:13.065Z,3.58
2023-04-02T20:48:15.178Z,3.61
2023-04-02T20:52:17.313Z,3.49
2023-04-02T20:56:20.932Z,3.52
2023-04-02T21:00:23.210Z,3.52
2023-04-02T21:04:25.632Z,3.45
2023-04-02T21:08:27.870Z,3.46
2023-04-02T21:12:31.120Z,3.38
2023-04-02T21:16:33.934Z,3.45
2023-04-02T21:20:36.504Z,3.40
2023-04-02T21:24:38.604Z,3.27
2023-04-02T21:28:41.486Z,3.32
2023-04-02T21:32:43.571Z,3.29
2023-04-02T21:36:48.278Z,3.37
2023-04-02T21:40:50.518Z,3.14
2023-04-02T21:44:53.367Z,3.19
2023-04-02T21:48:58.383Z,3.24
2023-04-02T21:53:00.616Z,3.10
2023-04-02T21:57:03.131Z,3.24
2023-04-02T22:01:09.097Z,3.10
2023-04-02T22:05:13.690Z,3.15
2023-04-02T22:09:18.431Z,3.09
2023-04-02T22:13:20.595Z,3.11
2023-04-02T22:17:22.798Z,3.10
2023-04-02T22:21:25.722Z,3.05
2023-04-02T22:25:27.482Z,3.03
2023-04-02T22:29:29.563Z,2.96
2023-04-02T22:33:32.437Z,3.03
2023-04-02T22:37:34.590Z,2.96
2023-04-02T22:41:36.801Z,2.88
2023-04-02T22:45:38.919Z,2.93
2023-04-02T22:49:41.205Z,2.95
2023-04-02T22:53:43.886Z,2.84
2023-04-02T22:57:46.154Z,2.75
2023-04-02T23:01:48.393Z,2.65
2023-04-02T23:06:05.577Z,2.62
2023-04-02T23:10:07.956Z,2.60
2023-04-02T23:14:10.330Z,2.49
2023-04-02T23:18:12.392Z,2.45
2023-04-02T23:22:14.472Z,2.40
2023-04-02T23:26:21.232Z,2.37
2023-04-02T23:30:23.423Z,2.17
2023-04-02T23:34:25.481Z,2.15
2023-04-02T23:38:27.556Z,2.10
2023-04-02T23:42:29.641Z,2.14
2023-04-02T23:46:32.940Z,1.98
2023-04-02T23:50:35.376Z,1.97
2023-04-02T23:54:37.709Z,1.84
2023-04-02T23:58:39.805Z,1.77
